sensor_id;sensor_type;location;lat;lon;timestamp;P1;durP1;ratioP1;P2;durP2;ratioP2
16667;SDS011;8447;52.630;4.734;2023-10-13T00:00:46;6.27;;;1.70;;
16667;SDS011;8447;52.630;4.734;2023-10-13T00:03:13;4.37;;;1.60;;
16667;SDS011;8447;52.630;4.734;2023-10-13T00:05:41;2.63;;;1.60;;
16667;SDS011;8447;52.630;4.734;2023-10-13T00:08:08;4.70;;;1.70;;
16667;SDS011;8447;52.630;4.734;2023-10-13T00:10:36;3.77;;;2.00;;
16667;SDS011;8447;52.630;4.734;2023-10-13T00:13:02;4.60;;;2.37;;
16667;SDS011;8447;52.630;4.734;2023-10-13T00:15:38;5.23;;;1.60;;
16667;SDS011;8447;52.630;4.734;2023-10-13T00:18:09;6.77;;;2.30;;
16667;SDS011;8447;52.630;4.734;2023-10-13T00:20:39;3.93;;;1.43;;
16667;SDS011;8447;52.630;4.734;2023-10-13T00:23:06;4.87;;;1.90;;
16667;SDS011;8447;52.630;4.734;2023-10-13T00:25:32;4.63;;;2.03;;
16667;SDS011;8447;52.630;4.734;2023-10-13T00:28:09;5.37;;;2.10;;
16667;SDS011;8447;52.630;4.734;2023-10-13T00:30:36;4.70;;;1.67;;
16667;SDS011;8447;52.630;4.734;2023-10-13T00:33:03;4.20;;;1.80;;
16667;SDS011;8447;52.630;4.734;2023-10-13T00:35:29;4.50;;;2.17;;
16667;SDS011;8447;52.630;4.734;2023-10-13T00:38:01;5.00;;;1.87;;
16667;SDS011;8447;52.630;4.734;2023-10-13T00:40:37;5.57;;;2.03;;
16667;SDS011;8447;52.630;4.734;2023-10-13T00:43:10;10.03;;;2.27;;
16667;SDS011;8447;52.630;4.734;2023-10-13T00:45:55;6.60;;;2.10;;
16667;SDS011;8447;52.630;4.734;2023-10-13T00:48:22;5.10;;;2.10;;
16667;SDS011;8447;52.630;4.734;2023-10-13T00:50:50;5.27;;;2.03;;
16667;SDS011;8447;52.630;4.734;2023-10-13T00:53:16;5.73;;;2.03;;
16667;SDS011;8447;52.630;4.734;2023-10-13T00:55:42;3.47;;;2.00;;
16667;SDS011;8447;52.630;4.734;2023-10-13T00:58:11;4.17;;;2.47;;
16667;SDS011;8447;52.630;4.734;2023-10-13T01:00:37;5.50;;;1.90;;
16667;SDS011;8447;52.630;4.734;2023-10-13T01:03:12;5.63;;;2.10;;
16667;SDS011;8447;52.630;4.734;2023-10-13T01:05:39;3.90;;;1.87;;
16667;SDS011;8447;52.630;4.734;2023-10-13T01:08:06;6.23;;;2.47;;
16667;SDS011;8447;52.630;4.734;2023-10-13T01:10:36;6.00;;;2.13;;
16667;SDS011;8447;52.630;4.734;2023-10-13T01:13:06;8.30;;;2.17;;
16667;SDS011;8447;52.630;4.734;2023-10-13T01:15:33;7.20;;;2.47;;
16667;SDS011;8447;52.630;4.734;2023-10-13T01:18:06;4.73;;;2.20;;
16667;SDS011;8447;52.630;4.734;2023-10-13T01:20:36;4.73;;;2.20;;
16667;SDS011;8447;52.630;4.734;2023-10-13T01:23:10;3.10;;;2.00;;
16667;SDS011;8447;52.630;4.734;2023-10-13T01:25:43;6.57;;;2.10;;
16667;SDS011;8447;52.630;4.734;2023-10-13T01:28:10;6.10;;;2.53;;
16667;SDS011;8447;52.630;4.734;2023-10-13T01:30:35;5.30;;;2.47;;
16667;SDS011;8447;52.630;4.734;2023-10-13T01:33:04;3.70;;;2.33;;
16667;SDS011;8447;52.630;4.734;2023-10-13T01:35:29;4.57;;;2.43;;
16667;SDS011;8447;52.630;4.734;2023-10-13T01:38:02;4.93;;;2.83;;
16667;SDS011;8447;52.630;4.734;2023-10-13T01:40:29;4.90;;;2.37;;
16667;SDS011;8447;52.630;4.734;2023-10-13T01:42:58;5.33;;;2.93;;
16667;SDS011;8447;52.630;4.734;2023-10-13T01:45:24;7.03;;;2.67;;
16667;SDS011;8447;52.630;4.734;2023-10-13T01:47:53;3.93;;;2.40;;
16667;SDS011;8447;52.630;4.734;2023-10-13T01:50:20;5.60;;;2.50;;
16667;SDS011;8447;52.630;4.734;2023-10-13T01:52:53;6.47;;;2.33;;
16667;SDS011;8447;52.630;4.734;2023-10-13T01:55:25;3.93;;;1.97;;
16667;SDS011;8447;52.630;4.734;2023-10-13T01:57:55;4.07;;;2.50;;
16667;SDS011;8447;52.630;4.734;2023-10-13T02:00:20;4.40;;;2.30;;
16667;SDS011;8447;52.630;4.734;2023-10-13T02:02:46;6.73;;;2.63;;
16667;SDS011;8447;52.630;4.734;2023-10-13T02:05:15;3.43;;;2.40;;
16667;SDS011;8447;52.630;4.734;2023-10-13T02:07:42;5.30;;;2.10;;
16667;SDS011;8447;52.630;4.734;2023-10-13T02:10:10;8.20;;;2.20;;
16667;SDS011;8447;52.630;4.734;2023-10-13T02:12:37;3.27;;;2.20;;
16667;SDS011;8447;52.630;4.734;2023-10-13T02:15:09;4.53;;;2.10;;
16667;SDS011;8447;52.630;4.734;2023-10-13T02:17:37;5.07;;;2.00;;
16667;SDS011;8447;52.630;4.734;2023-10-13T02:20:06;6.27;;;2.30;;
16667;SDS011;8447;52.630;4.734;2023-10-13T02:22:39;5.63;;;2.10;;
16667;SDS011;8447;52.630;4.734;2023-10-13T02:25:14;5.73;;;1.87;;
16667;SDS011;8447;52.630;4.734;2023-10-13T02:27:42;1.67;;;0.97;;
16667;SDS011;8447;52.630;4.734;2023-10-13T02:30:10;6.90;;;1.80;;
16667;SDS011;8447;52.630;4.734;2023-10-13T02:32:39;8.03;;;1.40;;
16667;SDS011;8447;52.630;4.734;2023-10-13T02:35:08;4.30;;;1.20;;
16667;SDS011;8447;52.630;4.734;2023-10-13T02:37:41;7.33;;;1.47;;
16667;SDS011;8447;52.630;4.734;2023-10-13T02:40:09;3.03;;;1.00;;
16667;SDS011;8447;52.630;4.734;2023-10-13T02:42:35;3.97;;;1.27;;
16667;SDS011;8447;52.630;4.734;2023-10-13T02:45:01;3.93;;;1.20;;
16667;SDS011;8447;52.630;4.734;2023-10-13T02:47:30;6.03;;;1.40;;
16667;SDS011;8447;52.630;4.734;2023-10-13T02:49:57;9.67;;;1.43;;
16667;SDS011;8447;52.630;4.734;2023-10-13T02:52:25;7.57;;;1.60;;
16667;SDS011;8447;52.630;4.734;2023-10-13T02:54:52;5.63;;;1.60;;
16667;SDS011;8447;52.630;4.734;2023-10-13T02:57:18;4.80;;;1.17;;
16667;SDS011;8447;52.630;4.734;2023-10-13T02:59:45;6.33;;;1.70;;
16667;SDS011;8447;52.630;4.734;2023-10-13T03:02:11;4.53;;;1.20;;
16667;SDS011;8447;52.630;4.734;2023-10-13T03:04:50;3.57;;;1.50;;
16667;SDS011;8447;52.630;4.734;2023-10-13T03:07:16;5.30;;;1.67;;
16667;SDS011;8447;52.630;4.734;2023-10-13T03:09:48;5.33;;;1.90;;
16667;SDS011;8447;52.630;4.734;2023-10-13T03:12:15;7.47;;;1.60;;
16667;SDS011;8447;52.630;4.734;2023-10-13T03:14:42;6.60;;;1.80;;
16667;SDS011;8447;52.630;4.734;2023-10-13T03:17:12;4.97;;;1.57;;
16667;SDS011;8447;52.630;4.734;2023-10-13T03:19:42;6.70;;;2.13;;
16667;SDS011;8447;52.630;4.734;2023-10-13T03:22:12;7.77;;;1.77;;
16667;SDS011;8447;52.630;4.734;2023-10-13T03:24:41;7.57;;;1.53;;
16667;SDS011;8447;52.630;4.734;2023-10-13T03:27:11;4.50;;;1.20;;
16667;SDS011;8447;52.630;4.734;2023-10-13T03:29:40;4.93;;;1.40;;
16667;SDS011;8447;52.630;4.734;2023-10-13T03:32:08;4.90;;;1.60;;
16667;SDS011;8447;52.630;4.734;2023-10-13T03:34:38;6.50;;;1.70;;
16667;SDS011;8447;52.630;4.734;2023-10-13T03:37:15;4.70;;;2.10;;
16667;SDS011;8447;52.630;4.734;2023-10-13T03:39:44;5.40;;;2.00;;
16667;SDS011;8447;52.630;4.734;2023-10-13T03:42:11;9.07;;;2.40;;
16667;SDS011;8447;52.630;4.734;2023-10-13T03:44:43;4.00;;;2.10;;
16667;SDS011;8447;52.630;4.734;2023-10-13T03:47:11;4.20;;;1.97;;
16667;SDS011;8447;52.630;4.734;2023-10-13T03:49:44;5.73;;;2.43;;
16667;SDS011;8447;52.630;4.734;2023-10-13T03:52:10;3.10;;;1.83;;
16667;SDS011;8447;52.630;4.734;2023-10-13T03:54:40;5.37;;;2.10;;
16667;SDS011;8447;52.630;4.734;2023-10-13T03:57:07;4.13;;;2.10;;
16667;SDS011;8447;52.630;4.734;2023-10-13T03:59:36;4.40;;;2.00;;
16667;SDS011;8447;52.630;4.734;2023-10-13T04:02:04;6.07;;;2.00;;
16667;SDS011;8447;52.630;4.734;2023-10-13T04:04:37;2.97;;;2.23;;
16667;SDS011;8447;52.630;4.734;2023-10-13T04:07:12;5.27;;;2.33;;
16667;SDS011;8447;52.630;4.734;2023-10-13T04:10:00;3.33;;;2.40;;
16667;SDS011;8447;52.630;4.734;2023-10-13T04:12:56;4.30;;;1.70;;
16667;SDS011;8447;52.630;4.734;2023-10-13T04:15:42;3.67;;;2.63;;
16667;SDS011;8447;52.630;4.734;2023-10-13T04:18:27;4.07;;;2.10;;
16667;SDS011;8447;52.630;4.734;2023-10-13T04:21:12;2.53;;;2.07;;
16667;SDS011;8447;52.630;4.734;2023-10-13T04:24:05;4.77;;;2.23;;
16667;SDS011;8447;52.630;4.734;2023-10-13T04:27:05;2.67;;;2.37;;
16667;SDS011;8447;52.630;4.734;2023-10-13T04:29:49;3.60;;;3.10;;
16667;SDS011;8447;52.630;4.734;2023-10-13T04:32:26;5.53;;;3.10;;
16667;SDS011;8447;52.630;4.734;2023-10-13T04:34:55;3.60;;;2.90;;
16667;SDS011;8447;52.630;4.734;2023-10-13T04:37:33;3.50;;;2.43;;
16667;SDS011;8447;52.630;4.734;2023-10-13T04:40:13;3.43;;;2.47;;
16667;SDS011;8447;52.630;4.734;2023-10-13T04:42:46;3.00;;;2.60;;
16667;SDS011;8447;52.630;4.734;2023-10-13T04:45:16;2.57;;;2.00;;
16667;SDS011;8447;52.630;4.734;2023-10-13T04:48:03;3.80;;;1.90;;
16667;SDS011;8447;52.630;4.734;2023-10-13T04:50:39;3.10;;;2.30;;
16667;SDS011;8447;52.630;4.734;2023-10-13T04:53:10;2.33;;;1.70;;
16667;SDS011;8447;52.630;4.734;2023-10-13T04:55:52;2.43;;;1.80;;
16667;SDS011;8447;52.630;4.734;2023-10-13T04:58:34;2.30;;;1.83;;
16667;SDS011;8447;52.630;4.734;2023-10-13T05:01:26;2.73;;;2.13;;
16667;SDS011;8447;52.630;4.734;2023-10-13T05:04:10;2.53;;;2.27;;
16667;SDS011;8447;52.630;4.734;2023-10-13T05:06:55;2.23;;;1.60;;
16667;SDS011;8447;52.630;4.734;2023-10-13T05:09:39;3.30;;;1.67;;
16667;SDS011;8447;52.630;4.734;2023-10-13T05:12:23;3.73;;;1.40;;
16667;SDS011;8447;52.630;4.734;2023-10-13T05:15:08;2.90;;;1.70;;
16667;SDS011;8447;52.630;4.734;2023-10-13T05:17:52;3.53;;;2.30;;
16667;SDS011;8447;52.630;4.734;2023-10-13T05:20:36;2.63;;;1.20;;
16667;SDS011;8447;52.630;4.734;2023-10-13T05:23:20;2.30;;;1.33;;
16667;SDS011;8447;52.630;4.734;2023-10-13T05:26:04;4.10;;;1.50;;
16667;SDS011;8447;52.630;4.734;2023-10-13T05:28:47;4.70;;;1.67;;
16667;SDS011;8447;52.630;4.734;2023-10-13T05:31:33;7.57;;;2.53;;
16667;SDS011;8447;52.630;4.734;2023-10-13T05:34:17;8.57;;;1.93;;
16667;SDS011;8447;52.630;4.734;2023-10-13T05:37:01;5.70;;;2.13;;
16667;SDS011;8447;52.630;4.734;2023-10-13T05:39:44;12.00;;;2.50;;
16667;SDS011;8447;52.630;4.734;2023-10-13T05:42:43;11.67;;;2.40;;
16667;SDS011;8447;52.630;4.734;2023-10-13T05:45:26;11.20;;;2.97;;
16667;SDS011;8447;52.630;4.734;2023-10-13T05:48:24;17.00;;;3.20;;
16667;SDS011;8447;52.630;4.734;2023-10-13T05:51:06;19.13;;;3.30;;
16667;SDS011;8447;52.630;4.734;2023-10-13T05:53:50;18.03;;;3.10;;
16667;SDS011;8447;52.630;4.734;2023-10-13T05:56:34;19.67;;;3.00;;
16667;SDS011;8447;52.630;4.734;2023-10-13T05:59:17;14.07;;;4.00;;
16667;SDS011;8447;52.630;4.734;2023-10-13T06:02:07;16.97;;;4.10;;
16667;SDS011;8447;52.630;4.734;2023-10-13T06:04:52;13.57;;;3.20;;
16667;SDS011;8447;52.630;4.734;2023-10-13T06:07:36;19.00;;;3.70;;
16667;SDS011;8447;52.630;4.734;2023-10-13T06:10:20;13.50;;;3.30;;
16667;SDS011;8447;52.630;4.734;2023-10-13T06:13:04;21.83;;;3.43;;
16667;SDS011;8447;52.630;4.734;2023-10-13T06:15:48;14.63;;;4.03;;
16667;SDS011;8447;52.630;4.734;2023-10-13T06:18:31;12.47;;;3.10;;
16667;SDS011;8447;52.630;4.734;2023-10-13T06:21:17;19.27;;;3.77;;
16667;SDS011;8447;52.630;4.734;2023-10-13T06:24:01;17.53;;;4.53;;
16667;SDS011;8447;52.630;4.734;2023-10-13T06:26:47;23.03;;;3.80;;
16667;SDS011;8447;52.630;4.734;2023-10-13T06:29:31;16.80;;;3.87;;
16667;SDS011;8447;52.630;4.734;2023-10-13T06:31:58;14.23;;;3.30;;
16667;SDS011;8447;52.630;4.734;2023-10-13T06:34:26;19.40;;;4.57;;
16667;SDS011;8447;52.630;4.734;2023-10-13T06:37:04;20.80;;;3.83;;
16667;SDS011;8447;52.630;4.734;2023-10-13T06:39:47;11.57;;;3.70;;
16667;SDS011;8447;52.630;4.734;2023-10-13T06:42:13;16.63;;;3.53;;
16667;SDS011;8447;52.630;4.734;2023-10-13T06:44:41;15.53;;;3.97;;
16667;SDS011;8447;52.630;4.734;2023-10-13T06:47:10;18.30;;;3.60;;
16667;SDS011;8447;52.630;4.734;2023-10-13T06:49:36;11.97;;;3.07;;
16667;SDS011;8447;52.630;4.734;2023-10-13T06:52:05;9.83;;;3.27;;
16667;SDS011;8447;52.630;4.734;2023-10-13T06:54:32;16.53;;;4.63;;
16667;SDS011;8447;52.630;4.734;2023-10-13T06:57:00;14.47;;;3.83;;
16667;SDS011;8447;52.630;4.734;2023-10-13T06:59:29;11.53;;;3.73;;
16667;SDS011;8447;52.630;4.734;2023-10-13T07:01:57;18.00;;;3.73;;
16667;SDS011;8447;52.630;4.734;2023-10-13T07:04:29;12.17;;;3.63;;
16667;SDS011;8447;52.630;4.734;2023-10-13T07:06:56;13.67;;;3.37;;
16667;SDS011;8447;52.630;4.734;2023-10-13T07:09:24;13.33;;;4.13;;
16667;SDS011;8447;52.630;4.734;2023-10-13T07:12:14;17.00;;;3.37;;
16667;SDS011;8447;52.630;4.734;2023-10-13T07:14:46;12.80;;;3.50;;
16667;SDS011;8447;52.630;4.734;2023-10-13T07:17:17;9.90;;;2.97;;
16667;SDS011;8447;52.630;4.734;2023-10-13T07:19:48;9.83;;;2.97;;
16667;SDS011;8447;52.630;4.734;2023-10-13T07:22:18;12.97;;;3.67;;
16667;SDS011;8447;52.630;4.734;2023-10-13T07:24:47;9.63;;;2.73;;
16667;SDS011;8447;52.630;4.734;2023-10-13T07:27:14;14.67;;;2.87;;
16667;SDS011;8447;52.630;4.734;2023-10-13T07:29:47;8.67;;;2.40;;
16667;SDS011;8447;52.630;4.734;2023-10-13T07:32:19;6.30;;;2.77;;
16667;SDS011;8447;52.630;4.734;2023-10-13T07:34:49;7.47;;;2.83;;
16667;SDS011;8447;52.630;4.734;2023-10-13T07:37:15;7.83;;;3.20;;
16667;SDS011;8447;52.630;4.734;2023-10-13T07:39:44;8.17;;;3.30;;
16667;SDS011;8447;52.630;4.734;2023-10-13T07:42:16;9.90;;;2.97;;
16667;SDS011;8447;52.630;4.734;2023-10-13T07:44:45;9.80;;;3.20;;
16667;SDS011;8447;52.630;4.734;2023-10-13T07:47:11;10.70;;;3.17;;
16667;SDS011;8447;52.630;4.734;2023-10-13T07:49:39;7.30;;;2.60;;
16667;SDS011;8447;52.630;4.734;2023-10-13T07:52:06;14.40;;;3.20;;
16667;SDS011;8447;52.630;4.734;2023-10-13T07:54:49;10.03;;;3.30;;
16667;SDS011;8447;52.630;4.734;2023-10-13T07:57:25;7.30;;;3.10;;
16667;SDS011;8447;52.630;4.734;2023-10-13T07:59:54;9.53;;;3.23;;
16667;SDS011;8447;52.630;4.734;2023-10-13T08:02:31;5.07;;;2.63;;
16667;SDS011;8447;52.630;4.734;2023-10-13T08:05:13;8.67;;;3.40;;
16667;SDS011;8447;52.630;4.734;2023-10-13T08:07:49;6.47;;;3.00;;
16667;SDS011;8447;52.630;4.734;2023-10-13T08:10:21;7.63;;;3.90;;
16667;SDS011;8447;52.630;4.734;2023-10-13T08:12:56;7.50;;;3.97;;
16667;SDS011;8447;52.630;4.734;2023-10-13T08:15:24;7.87;;;3.73;;
16667;SDS011;8447;52.630;4.734;2023-10-13T08:17:57;11.90;;;3.37;;
16667;SDS011;8447;52.630;4.734;2023-10-13T08:20:28;4.03;;;3.03;;
16667;SDS011;8447;52.630;4.734;2023-10-13T08:22:55;6.73;;;3.60;;
16667;SDS011;8447;52.630;4.734;2023-10-13T08:25:38;7.90;;;3.37;;
16667;SDS011;8447;52.630;4.734;2023-10-13T08:28:19;7.87;;;3.40;;
16667;SDS011;8447;52.630;4.734;2023-10-13T08:31:15;11.47;;;3.37;;
16667;SDS011;8447;52.630;4.734;2023-10-13T08:33:47;5.00;;;2.57;;
16667;SDS011;8447;52.630;4.734;2023-10-13T08:36:12;8.43;;;3.57;;
16667;SDS011;8447;52.630;4.734;2023-10-13T08:38:53;8.77;;;4.27;;
16667;SDS011;8447;52.630;4.734;2023-10-13T08:41:20;6.33;;;2.17;;
16667;SDS011;8447;52.630;4.734;2023-10-13T08:44:02;8.23;;;3.23;;
16667;SDS011;8447;52.630;4.734;2023-10-13T08:46:31;11.50;;;3.13;;
16667;SDS011;8447;52.630;4.734;2023-10-13T08:49:16;4.20;;;2.30;;
16667;SDS011;8447;52.630;4.734;2023-10-13T08:51:44;8.87;;;3.07;;
16667;SDS011;8447;52.630;4.734;2023-10-13T08:54:13;11.23;;;3.87;;
16667;SDS011;8447;52.630;4.734;2023-10-13T08:56:46;12.33;;;4.20;;
16667;SDS011;8447;52.630;4.734;2023-10-13T08:59:21;10.90;;;3.40;;
16667;SDS011;8447;52.630;4.734;2023-10-13T09:02:08;7.30;;;3.17;;
16667;SDS011;8447;52.630;4.734;2023-10-13T09:04:42;5.60;;;3.03;;
16667;SDS011;8447;52.630;4.734;2023-10-13T09:07:09;9.07;;;4.43;;
16667;SDS011;8447;52.630;4.734;2023-10-13T09:09:46;12.93;;;4.33;;
16667;SDS011;8447;52.630;4.734;2023-10-13T09:12:39;7.80;;;3.70;;
16667;SDS011;8447;52.630;4.734;2023-10-13T09:15:29;12.77;;;3.47;;
16667;SDS011;8447;52.630;4.734;2023-10-13T09:18:24;11.97;;;3.70;;
16667;SDS011;8447;52.630;4.734;2023-10-13T09:21:08;7.00;;;3.13;;
16667;SDS011;8447;52.630;4.734;2023-10-13T09:23:55;15.90;;;5.27;;
16667;SDS011;8447;52.630;4.734;2023-10-13T09:26:41;6.63;;;2.73;;
16667;SDS011;8447;52.630;4.734;2023-10-13T09:29:17;11.63;;;3.67;;
16667;SDS011;8447;52.630;4.734;2023-10-13T09:31:45;12.87;;;3.93;;
16667;SDS011;8447;52.630;4.734;2023-10-13T09:34:19;8.20;;;2.60;;
16667;SDS011;8447;52.630;4.734;2023-10-13T09:36:46;10.97;;;3.90;;
16667;SDS011;8447;52.630;4.734;2023-10-13T09:39:20;9.73;;;3.90;;
16667;SDS011;8447;52.630;4.734;2023-10-13T09:41:54;13.47;;;3.03;;
16667;SDS011;8447;52.630;4.734;2023-10-13T09:44:20;12.83;;;4.27;;
16667;SDS011;8447;52.630;4.734;2023-10-13T09:46:49;10.00;;;3.67;;
16667;SDS011;8447;52.630;4.734;2023-10-13T09:49:16;12.60;;;3.37;;
16667;SDS011;8447;52.630;4.734;2023-10-13T09:51:59;15.03;;;3.80;;
16667;SDS011;8447;52.630;4.734;2023-10-13T09:54:29;8.97;;;2.80;;
16667;SDS011;8447;52.630;4.734;2023-10-13T09:56:57;4.73;;;2.13;;
16667;SDS011;8447;52.630;4.734;2023-10-13T09:59:27;12.43;;;3.17;;
16667;SDS011;8447;52.630;4.734;2023-10-13T10:02:01;11.63;;;3.37;;
16667;SDS011;8447;52.630;4.734;2023-10-13T10:04:33;11.73;;;3.40;;
16667;SDS011;8447;52.630;4.734;2023-10-13T10:07:06;12.57;;;3.10;;
16667;SDS011;8447;52.630;4.734;2023-10-13T10:09:33;13.47;;;3.73;;
16667;SDS011;8447;52.630;4.734;2023-10-13T10:12:10;11.47;;;3.17;;
16667;SDS011;8447;52.630;4.734;2023-10-13T10:14:56;11.50;;;4.30;;
16667;SDS011;8447;52.630;4.734;2023-10-13T10:17:28;12.13;;;3.37;;
16667;SDS011;8447;52.630;4.734;2023-10-13T10:19:58;10.27;;;3.27;;
16667;SDS011;8447;52.630;4.734;2023-10-13T10:22:31;13.60;;;3.27;;
16667;SDS011;8447;52.630;4.734;2023-10-13T10:25:00;9.27;;;3.37;;
16667;SDS011;8447;52.630;4.734;2023-10-13T10:27:29;8.33;;;2.90;;
16667;SDS011;8447;52.630;4.734;2023-10-13T10:29:56;17.90;;;3.30;;
16667;SDS011;8447;52.630;4.734;2023-10-13T10:32:32;10.10;;;2.93;;
16667;SDS011;8447;52.630;4.734;2023-10-13T10:35:05;11.67;;;3.57;;
16667;SDS011;8447;52.630;4.734;2023-10-13T10:37:34;14.20;;;3.00;;
16667;SDS011;8447;52.630;4.734;2023-10-13T10:40:01;6.33;;;2.57;;
16667;SDS011;8447;52.630;4.734;2023-10-13T10:42:33;9.67;;;3.00;;
16667;SDS011;8447;52.630;4.734;2023-10-13T10:45:00;15.37;;;3.90;;
16667;SDS011;8447;52.630;4.734;2023-10-13T10:47:30;6.00;;;3.43;;
16667;SDS011;8447;52.630;4.734;2023-10-13T10:50:00;14.00;;;2.73;;
16667;SDS011;8447;52.630;4.734;2023-10-13T10:52:34;12.43;;;3.93;;
16667;SDS011;8447;52.630;4.734;2023-10-13T10:55:02;7.47;;;2.73;;
16667;SDS011;8447;52.630;4.734;2023-10-13T10:57:32;11.70;;;3.40;;
16667;SDS011;8447;52.630;4.734;2023-10-13T11:00:02;7.37;;;3.30;;
16667;SDS011;8447;52.630;4.734;2023-10-13T11:02:36;14.63;;;3.67;;
16667;SDS011;8447;52.630;4.734;2023-10-13T11:05:04;11.70;;;4.60;;
16667;SDS011;8447;52.630;4.734;2023-10-13T11:07:32;16.90;;;4.57;;
16667;SDS011;8447;52.630;4.734;2023-10-13T11:10:06;17.70;;;4.87;;
16667;SDS011;8447;52.630;4.734;2023-10-13T11:12:37;14.10;;;3.90;;
16667;SDS011;8447;52.630;4.734;2023-10-13T11:15:05;6.10;;;2.57;;
16667;SDS011;8447;52.630;4.734;2023-10-13T11:17:39;11.07;;;3.73;;
16667;SDS011;8447;52.630;4.734;2023-10-13T11:20:16;12.27;;;4.30;;
16667;SDS011;8447;52.630;4.734;2023-10-13T11:22:46;10.93;;;3.63;;
16667;SDS011;8447;52.630;4.734;2023-10-13T11:25:21;12.93;;;4.00;;
16667;SDS011;8447;52.630;4.734;2023-10-13T11:27:49;11.77;;;4.07;;
16667;SDS011;8447;52.630;4.734;2023-10-13T11:30:25;8.57;;;2.63;;
16667;SDS011;8447;52.630;4.734;2023-10-13T11:32:57;9.87;;;2.87;;
16667;SDS011;8447;52.630;4.734;2023-10-13T11:35:25;11.77;;;4.67;;
16667;SDS011;8447;52.630;4.734;2023-10-13T11:37:54;6.20;;;3.10;;
16667;SDS011;8447;52.630;4.734;2023-10-13T11:40:28;21.23;;;4.73;;
16667;SDS011;8447;52.630;4.734;2023-10-13T11:43:28;4.33;;;2.53;;
16667;SDS011;8447;52.630;4.734;2023-10-13T11:45:56;6.47;;;3.27;;
16667;SDS011;8447;52.630;4.734;2023-10-13T11:48:38;13.00;;;3.40;;
16667;SDS011;8447;52.630;4.734;2023-10-13T11:51:04;6.43;;;2.93;;
16667;SDS011;8447;52.630;4.734;2023-10-13T11:53:32;10.93;;;3.93;;
16667;SDS011;8447;52.630;4.734;2023-10-13T11:55:59;10.63;;;3.03;;
16667;SDS011;8447;52.630;4.734;2023-10-13T11:58:26;14.80;;;5.53;;
16667;SDS011;8447;52.630;4.734;2023-10-13T12:00:55;12.10;;;4.30;;
16667;SDS011;8447;52.630;4.734;2023-10-13T12:03:45;17.13;;;4.87;;
16667;SDS011;8447;52.630;4.734;2023-10-13T12:06:30;14.90;;;4.37;;
16667;SDS011;8447;52.630;4.734;2023-10-13T12:09:07;18.47;;;4.60;;
16667;SDS011;8447;52.630;4.734;2023-10-13T12:11:39;17.17;;;4.97;;
16667;SDS011;8447;52.630;4.734;2023-10-13T12:14:07;17.70;;;5.00;;
16667;SDS011;8447;52.630;4.734;2023-10-13T12:16:43;14.87;;;4.47;;
16667;SDS011;8447;52.630;4.734;2023-10-13T12:19:13;13.77;;;5.50;;
16667;SDS011;8447;52.630;4.734;2023-10-13T12:21:41;14.10;;;4.33;;
16667;SDS011;8447;52.630;4.734;2023-10-13T12:24:08;19.13;;;5.33;;
16667;SDS011;8447;52.630;4.734;2023-10-13T12:26:46;14.63;;;3.83;;
16667;SDS011;8447;52.630;4.734;2023-10-13T12:29:12;15.07;;;4.33;;
16667;SDS011;8447;52.630;4.734;2023-10-13T12:31:49;20.37;;;5.87;;
16667;SDS011;8447;52.630;4.734;2023-10-13T12:34:26;20.37;;;5.23;;
16667;SDS011;8447;52.630;4.734;2023-10-13T12:37:11;15.20;;;4.80;;
16667;SDS011;8447;52.630;4.734;2023-10-13T12:39:58;15.77;;;4.07;;
16667;SDS011;8447;52.630;4.734;2023-10-13T12:42:42;20.17;;;5.10;;
16667;SDS011;8447;52.630;4.734;2023-10-13T12:45:26;21.37;;;6.13;;
16667;SDS011;8447;52.630;4.734;2023-10-13T12:48:08;10.10;;;3.93;;
16667;SDS011;8447;52.630;4.734;2023-10-13T12:50:52;21.03;;;6.13;;
16667;SDS011;8447;52.630;4.734;2023-10-13T12:53:32;19.33;;;5.23;;
16667;SDS011;8447;52.630;4.734;2023-10-13T12:55:59;22.57;;;5.93;;
16667;SDS011;8447;52.630;4.734;2023-10-13T12:58:28;13.57;;;3.70;;
16667;SDS011;8447;52.630;4.734;2023-10-13T13:00:59;23.30;;;5.77;;
16667;SDS011;8447;52.630;4.734;2023-10-13T13:03:32;18.73;;;5.17;;
16667;SDS011;8447;52.630;4.734;2023-10-13T13:05:59;28.80;;;6.73;;
16667;SDS011;8447;52.630;4.734;2023-10-13T13:08:32;19.47;;;5.43;;
16667;SDS011;8447;52.630;4.734;2023-10-13T13:11:00;24.40;;;6.43;;
16667;SDS011;8447;52.630;4.734;2023-10-13T13:13:27;20.03;;;5.73;;
16667;SDS011;8447;52.630;4.734;2023-10-13T13:15:53;12.23;;;4.83;;
16667;SDS011;8447;52.630;4.734;2023-10-13T13:18:21;15.87;;;4.90;;
16667;SDS011;8447;52.630;4.734;2023-10-13T13:20:49;15.90;;;5.10;;
16667;SDS011;8447;52.630;4.734;2023-10-13T13:23:19;13.87;;;4.87;;
16667;SDS011;8447;52.630;4.734;2023-10-13T13:25:46;22.90;;;6.17;;
16667;SDS011;8447;52.630;4.734;2023-10-13T13:28:13;10.90;;;4.13;;
16667;SDS011;8447;52.630;4.734;2023-10-13T13:30:40;14.13;;;4.20;;
16667;SDS011;8447;52.630;4.734;2023-10-13T13:33:06;16.60;;;5.23;;
16667;SDS011;8447;52.630;4.734;2023-10-13T13:35:37;11.77;;;4.90;;
16667;SDS011;8447;52.630;4.734;2023-10-13T13:38:04;16.23;;;4.73;;
16667;SDS011;8447;52.630;4.734;2023-10-13T13:40:47;28.73;;;6.07;;
16667;SDS011;8447;52.630;4.734;2023-10-13T13:43:15;17.57;;;5.87;;
16667;SDS011;8447;52.630;4.734;2023-10-13T13:45:44;9.23;;;3.40;;
16667;SDS011;8447;52.630;4.734;2023-10-13T13:48:12;18.43;;;4.53;;
16667;SDS011;8447;52.630;4.734;2023-10-13T13:50:40;11.43;;;3.87;;
16667;SDS011;8447;52.630;4.734;2023-10-13T13:53:08;19.73;;;5.83;;
16667;SDS011;8447;52.630;4.734;2023-10-13T13:55:36;16.83;;;4.63;;
16667;SDS011;8447;52.630;4.734;2023-10-13T13:58:05;22.13;;;5.70;;
16667;SDS011;8447;52.630;4.734;2023-10-13T14:00:33;17.37;;;5.90;;
16667;SDS011;8447;52.630;4.734;2023-10-13T14:03:03;23.23;;;5.67;;
16667;SDS011;8447;52.630;4.734;2023-10-13T14:05:30;21.77;;;5.33;;
16667;SDS011;8447;52.630;4.734;2023-10-13T14:07:56;13.33;;;4.03;;
16667;SDS011;8447;52.630;4.734;2023-10-13T14:10:24;18.27;;;4.67;;
16667;SDS011;8447;52.630;4.734;2023-10-13T14:12:59;28.33;;;6.43;;
16667;SDS011;8447;52.630;4.734;2023-10-13T14:15:32;17.07;;;4.30;;
16667;SDS011;8447;52.630;4.734;2023-10-13T14:18:05;20.07;;;6.10;;
16667;SDS011;8447;52.630;4.734;2023-10-13T14:20:32;20.63;;;5.00;;
16667;SDS011;8447;52.630;4.734;2023-10-13T14:23:04;22.83;;;5.83;;
16667;SDS011;8447;52.630;4.734;2023-10-13T14:25:34;19.70;;;4.93;;
16667;SDS011;8447;52.630;4.734;2023-10-13T14:28:02;26.87;;;5.47;;
16667;SDS011;8447;52.630;4.734;2023-10-13T14:30:29;19.77;;;5.17;;
16667;SDS011;8447;52.630;4.734;2023-10-13T14:32:56;14.83;;;4.80;;
16667;SDS011;8447;52.630;4.734;2023-10-13T14:35:23;15.43;;;4.07;;
16667;SDS011;8447;52.630;4.734;2023-10-13T14:37:51;26.70;;;6.53;;
16667;SDS011;8447;52.630;4.734;2023-10-13T14:40:17;15.43;;;4.37;;
16667;SDS011;8447;52.630;4.734;2023-10-13T14:42:48;14.00;;;4.33;;
16667;SDS011;8447;52.630;4.734;2023-10-13T14:45:14;24.50;;;5.97;;
16667;SDS011;8447;52.630;4.734;2023-10-13T14:47:41;19.53;;;5.00;;
16667;SDS011;8447;52.630;4.734;2023-10-13T14:50:08;20.73;;;5.47;;
16667;SDS011;8447;52.630;4.734;2023-10-13T14:52:39;23.23;;;6.17;;
16667;SDS011;8447;52.630;4.734;2023-10-13T14:55:08;27.23;;;6.70;;
16667;SDS011;8447;52.630;4.734;2023-10-13T14:57:43;23.73;;;4.57;;
16667;SDS011;8447;52.630;4.734;2023-10-13T15:00:12;21.70;;;4.57;;
16667;SDS011;8447;52.630;4.734;2023-10-13T15:02:39;31.30;;;6.73;;
16667;SDS011;8447;52.630;4.734;2023-10-13T15:05:08;33.33;;;6.37;;
16667;SDS011;8447;52.630;4.734;2023-10-13T15:07:35;20.27;;;5.40;;
16667;SDS011;8447;52.630;4.734;2023-10-13T15:10:02;29.47;;;4.73;;
16667;SDS011;8447;52.630;4.734;2023-10-13T15:12:28;28.10;;;6.23;;
16667;SDS011;8447;52.630;4.734;2023-10-13T15:14:55;20.93;;;5.20;;
16667;SDS011;8447;52.630;4.734;2023-10-13T15:17:25;20.93;;;5.30;;
16667;SDS011;8447;52.630;4.734;2023-10-13T15:19:53;29.77;;;5.70;;
16667;SDS011;8447;52.630;4.734;2023-10-13T15:22:20;31.47;;;6.43;;
16667;SDS011;8447;52.630;4.734;2023-10-13T15:24:52;26.43;;;6.40;;
16667;SDS011;8447;52.630;4.734;2023-10-13T15:27:33;22.40;;;5.60;;
16667;SDS011;8447;52.630;4.734;2023-10-13T15:30:06;29.93;;;5.77;;